Terminal Aerodrome Forecast
Issued by NWS

Home | Current Version | Previous Version | Text Only | Print | Product List | Glossary On
Versions: 1 2 3 4 5 6 7 8 9 10 11 12 13 14 15
000
FTUS43 KGRR 271142
TAFLAN
TAF
KLAN 271142Z 2712/2812 09007KT P6SM VCSH OVC050
     FM271400 11007KT 5SM -SHRA BR VCTS OVC035CB
     FM271600 13009KT 3SM -SHRA BR VCTS OVC035CB
     FM271900 14010KT P6SM VCTS OVC035CB
     FM280200 19005KT P6SM BKN035=

USA.gov is the U.S. government's official web portal to all federal, state and local government web resources and services.